<?xml version="1.0" encoding="utf-8"?>
<gpx xmlns:xsi="http://www.w3.org/2001/XMLSchema-instance" xmlns:xsd="http://www.w3.org/2001/XMLSchema" version="1.1" creator="Shapelink.com" xmlns="http://www.topografix.com/GPX/1/1" xmlns:gpxtpx="http://www.garmin.com/xmlschemas/TrackPointExtension/v1">
  <metadata>
    <name>Gåing 5.79 km, 2012-02-28</name>
    <desc></desc>
    <author><name>Mikael Blom</name></author> 
    <time>2012-02-28T18:12:11Z</time>
  </metadata>
  <trk>
    <name>Gåing 5.79 km, 2012-02-28</name>
    <trkseg>
      <trkpt lat="59.9789314" lon="17.7394967">
        <ele>31.3801</ele>
        <time>2012-02-28T18:12:11Z</time>
      </trkpt>
      <trkpt lat="59.9788852" lon="17.7393709">
        <ele>31.8607</ele>
        <time>2012-02-28T18:12:20Z</time>
      </trkpt>
      <trkpt lat="59.9788318" lon="17.739327">
        <ele>34.2642</ele>
        <time>2012-02-28T18:12:26Z</time>
      </trkpt>
      <trkpt lat="59.9787615" lon="17.7393025">
        <ele>35.2255</ele>
        <time>2012-02-28T18:12:31Z</time>
      </trkpt>
      <trkpt lat="59.9786516" lon="17.7392921">
        <ele>36.6675</ele>
        <time>2012-02-28T18:12:39Z</time>
      </trkpt>
      <trkpt lat="59.9785665" lon="17.7392896">
        <ele>37.1481</ele>
        <time>2012-02-28T18:12:44Z</time>
      </trkpt>
      <trkpt lat="59.978434" lon="17.7393101">
        <ele>35.2255</ele>
        <time>2012-02-28T18:12:51Z</time>
      </trkpt>
      <trkpt lat="59.9783225" lon="17.7393165">
        <ele>34.7449</ele>
        <time>2012-02-28T18:12:57Z</time>
      </trkpt>
      <trkpt lat="59.9782246" lon="17.739313">
        <ele>35.7061</ele>
        <time>2012-02-28T18:13:02Z</time>
      </trkpt>
      <trkpt lat="59.978175" lon="17.7393118">
        <ele>34.7449</ele>
        <time>2012-02-28T18:13:05Z</time>
      </trkpt>
      <trkpt lat="59.9780552" lon="17.7392967">
        <ele>34.7449</ele>
        <time>2012-02-28T18:13:13Z</time>
      </trkpt>
      <trkpt lat="59.9780347" lon="17.739289">
        <ele>33.7834</ele>
        <time>2012-02-28T18:13:14Z</time>
      </trkpt>
      <trkpt lat="59.977956" lon="17.7392217">
        <ele>32.8223</ele>
        <time>2012-02-28T18:13:20Z</time>
      </trkpt>
      <trkpt lat="59.9779139" lon="17.7391958">
        <ele>31.3801</ele>
        <time>2012-02-28T18:13:23Z</time>
      </trkpt>
      <trkpt lat="59.9778359" lon="17.7391507">
        <ele>28.9769</ele>
        <time>2012-02-28T18:13:29Z</time>
      </trkpt>
      <trkpt lat="59.97774" lon="17.7391464">
        <ele>26.0929</ele>
        <time>2012-02-28T18:13:35Z</time>
      </trkpt>
      <trkpt lat="59.9776794" lon="17.7391283">
        <ele>25.1317</ele>
        <time>2012-02-28T18:13:39Z</time>
      </trkpt>
      <trkpt lat="59.9776332" lon="17.7391309">
        <ele>24.1703</ele>
        <time>2012-02-28T18:13:42Z</time>
      </trkpt>
      <trkpt lat="59.9775642" lon="17.7391409">
        <ele>25.6123</ele>
        <time>2012-02-28T18:13:47Z</time>
      </trkpt>
      <trkpt lat="59.9774628" lon="17.7391681">
        <ele>23.6896</ele>
        <time>2012-02-28T18:13:54Z</time>
      </trkpt>
      <trkpt lat="59.9774468" lon="17.7391735">
        <ele>23.209</ele>
        <time>2012-02-28T18:13:55Z</time>
      </trkpt>
      <trkpt lat="59.9773571" lon="17.7392009">
        <ele>20.325</ele>
        <time>2012-02-28T18:14:01Z</time>
      </trkpt>
      <trkpt lat="59.9772189" lon="17.7392511">
        <ele>21.2864</ele>
        <time>2012-02-28T18:14:10Z</time>
      </trkpt>
      <trkpt lat="59.9771618" lon="17.7393008">
        <ele>22.2476</ele>
        <time>2012-02-28T18:14:15Z</time>
      </trkpt>
      <trkpt lat="59.9771302" lon="17.7393517">
        <ele>23.209</ele>
        <time>2012-02-28T18:14:18Z</time>
      </trkpt>
      <trkpt lat="59.9770982" lon="17.7393844">
        <ele>23.209</ele>
        <time>2012-02-28T18:14:20Z</time>
      </trkpt>
      <trkpt lat="59.9769925" lon="17.7394114">
        <ele>21.2864</ele>
        <time>2012-02-28T18:14:28Z</time>
      </trkpt>
      <trkpt lat="59.9769221" lon="17.7394299">
        <ele>22.2476</ele>
        <time>2012-02-28T18:14:32Z</time>
      </trkpt>
      <trkpt lat="59.9768011" lon="17.7394833">
        <ele>21.2864</ele>
        <time>2012-02-28T18:14:39Z</time>
      </trkpt>
      <trkpt lat="59.9767038" lon="17.739548">
        <ele>18.8831</ele>
        <time>2012-02-28T18:14:46Z</time>
      </trkpt>
      <trkpt lat="59.9766246" lon="17.7395702">
        <ele>18.4023</ele>
        <time>2012-02-28T18:14:51Z</time>
      </trkpt>
      <trkpt lat="59.9765294" lon="17.7396499">
        <ele>21.767</ele>
        <time>2012-02-28T18:14:58Z</time>
      </trkpt>
      <trkpt lat="59.9765165" lon="17.7396704">
        <ele>22.2476</ele>
        <time>2012-02-28T18:14:59Z</time>
      </trkpt>
      <trkpt lat="59.9764362" lon="17.7397749">
        <ele>24.651</ele>
        <time>2012-02-28T18:15:05Z</time>
      </trkpt>
      <trkpt lat="59.9764081" lon="17.7398323">
        <ele>26.5736</ele>
        <time>2012-02-28T18:15:08Z</time>
      </trkpt>
      <trkpt lat="59.9763241" lon="17.7400443">
        <ele>31.3801</ele>
        <time>2012-02-28T18:15:17Z</time>
      </trkpt>
      <trkpt lat="59.9762636" lon="17.7402463">
        <ele>34.2642</ele>
        <time>2012-02-28T18:15:25Z</time>
      </trkpt>
      <trkpt lat="59.9762056" lon="17.7404587">
        <ele>35.7061</ele>
        <time>2012-02-28T18:15:33Z</time>
      </trkpt>
      <trkpt lat="59.9761112" lon="17.7406721">
        <ele>36.1868</ele>
        <time>2012-02-28T18:15:42Z</time>
      </trkpt>
      <trkpt lat="59.9760855" lon="17.7407363">
        <ele>35.7061</ele>
        <time>2012-02-28T18:15:45Z</time>
      </trkpt>
      <trkpt lat="59.9760361" lon="17.7409089">
        <ele>33.7834</ele>
        <time>2012-02-28T18:15:52Z</time>
      </trkpt>
      <trkpt lat="59.9759586" lon="17.7411579">
        <ele>32.8223</ele>
        <time>2012-02-28T18:16:01Z</time>
      </trkpt>
      <trkpt lat="59.9759357" lon="17.7412425">
        <ele>33.3029</ele>
        <time>2012-02-28T18:16:04Z</time>
      </trkpt>
      <trkpt lat="59.9758819" lon="17.741459">
        <ele>32.8223</ele>
        <time>2012-02-28T18:16:12Z</time>
      </trkpt>
      <trkpt lat="59.9758135" lon="17.7417309">
        <ele>33.3029</ele>
        <time>2012-02-28T18:16:22Z</time>
      </trkpt>
      <trkpt lat="59.9757646" lon="17.7418994">
        <ele>32.3416</ele>
        <time>2012-02-28T18:16:28Z</time>
      </trkpt>
      <trkpt lat="59.9757254" lon="17.7420985">
        <ele>33.7834</ele>
        <time>2012-02-28T18:16:35Z</time>
      </trkpt>
      <trkpt lat="59.975689" lon="17.7422634">
        <ele>33.7834</ele>
        <time>2012-02-28T18:16:41Z</time>
      </trkpt>
      <trkpt lat="59.9756603" lon="17.7424022">
        <ele>34.2642</ele>
        <time>2012-02-28T18:16:46Z</time>
      </trkpt>
      <trkpt lat="59.975613" lon="17.742617">
        <ele>34.2642</ele>
        <time>2012-02-28T18:16:54Z</time>
      </trkpt>
      <trkpt lat="59.9755644" lon="17.7427732">
        <ele>33.7834</ele>
        <time>2012-02-28T18:17:00Z</time>
      </trkpt>
      <trkpt lat="59.9755396" lon="17.7428533">
        <ele>33.3029</ele>
        <time>2012-02-28T18:17:03Z</time>
      </trkpt>
      <trkpt lat="59.9755171" lon="17.7429618">
        <ele>33.7834</ele>
        <time>2012-02-28T18:17:07Z</time>
      </trkpt>
      <trkpt lat="59.9754715" lon="17.7431532">
        <ele>32.3416</ele>
        <time>2012-02-28T18:17:14Z</time>
      </trkpt>
      <trkpt lat="59.9753949" lon="17.743426">
        <ele>30.8995</ele>
        <time>2012-02-28T18:17:24Z</time>
      </trkpt>
      <trkpt lat="59.9753929" lon="17.7434476">
        <ele>30.8995</ele>
        <time>2012-02-28T18:17:25Z</time>
      </trkpt>
      <trkpt lat="59.9753577" lon="17.7436238">
        <ele>30.8995</ele>
        <time>2012-02-28T18:17:31Z</time>
      </trkpt>
      <trkpt lat="59.9753336" lon="17.7438142">
        <ele>30.4188</ele>
        <time>2012-02-28T18:17:38Z</time>
      </trkpt>
      <trkpt lat="59.9753026" lon="17.7439557">
        <ele>30.4188</ele>
        <time>2012-02-28T18:17:43Z</time>
      </trkpt>
      <trkpt lat="59.9752568" lon="17.7441526">
        <ele>29.9381</ele>
        <time>2012-02-28T18:17:50Z</time>
      </trkpt>
      <trkpt lat="59.975234" lon="17.7443169">
        <ele>30.8995</ele>
        <time>2012-02-28T18:17:56Z</time>
      </trkpt>
      <trkpt lat="59.9751917" lon="17.7444835">
        <ele>29.9381</ele>
        <time>2012-02-28T18:18:02Z</time>
      </trkpt>
      <trkpt lat="59.9751282" lon="17.7447115">
        <ele>29.9381</ele>
        <time>2012-02-28T18:18:10Z</time>
      </trkpt>
      <trkpt lat="59.9750774" lon="17.7448763">
        <ele>30.4188</ele>
        <time>2012-02-28T18:18:16Z</time>
      </trkpt>
      <trkpt lat="59.9749858" lon="17.7451629">
        <ele>32.3416</ele>
        <time>2012-02-28T18:18:26Z</time>
      </trkpt>
      <trkpt lat="59.9749184" lon="17.7453451">
        <ele>34.2642</ele>
        <time>2012-02-28T18:18:33Z</time>
      </trkpt>
      <trkpt lat="59.9748364" lon="17.7455782">
        <ele>35.7061</ele>
        <time>2012-02-28T18:18:42Z</time>
      </trkpt>
      <trkpt lat="59.9747079" lon="17.7458667">
        <ele>36.6675</ele>
        <time>2012-02-28T18:18:54Z</time>
      </trkpt>
      <trkpt lat="59.9746972" lon="17.745888">
        <ele>36.6675</ele>
        <time>2012-02-28T18:18:55Z</time>
      </trkpt>
      <trkpt lat="59.9746205" lon="17.7460484">
        <ele>35.7061</ele>
        <time>2012-02-28T18:19:02Z</time>
      </trkpt>
      <trkpt lat="59.974554" lon="17.7461781">
        <ele>35.2255</ele>
        <time>2012-02-28T18:19:08Z</time>
      </trkpt>
      <trkpt lat="59.9744463" lon="17.7463106">
        <ele>34.7449</ele>
        <time>2012-02-28T18:19:17Z</time>
      </trkpt>
      <trkpt lat="59.9743822" lon="17.7463819">
        <ele>33.7834</ele>
        <time>2012-02-28T18:19:22Z</time>
      </trkpt>
      <trkpt lat="59.9743333" lon="17.7464406">
        <ele>34.2642</ele>
        <time>2012-02-28T18:19:25Z</time>
      </trkpt>
      <trkpt lat="59.9742258" lon="17.7465915">
        <ele>36.1868</ele>
        <time>2012-02-28T18:19:34Z</time>
      </trkpt>
      <trkpt lat="59.9741512" lon="17.7466805">
        <ele>36.1868</ele>
        <time>2012-02-28T18:19:39Z</time>
      </trkpt>
      <trkpt lat="59.9740713" lon="17.7467752">
        <ele>36.1868</ele>
        <time>2012-02-28T18:19:45Z</time>
      </trkpt>
      <trkpt lat="59.9740057" lon="17.7468592">
        <ele>36.1868</ele>
        <time>2012-02-28T18:19:50Z</time>
      </trkpt>
      <trkpt lat="59.9739656" lon="17.7469126">
        <ele>36.1868</ele>
        <time>2012-02-28T18:19:53Z</time>
      </trkpt>
      <trkpt lat="59.9739594" lon="17.7469383">
        <ele>36.1868</ele>
        <time>2012-02-28T18:19:55Z</time>
      </trkpt>
      <trkpt lat="59.9738799" lon="17.7470422">
        <ele>36.1868</ele>
        <time>2012-02-28T18:20:02Z</time>
      </trkpt>
      <trkpt lat="59.9737882" lon="17.7471669">
        <ele>36.1868</ele>
        <time>2012-02-28T18:20:10Z</time>
      </trkpt>
      <trkpt lat="59.9737306" lon="17.7472515">
        <ele>36.1868</ele>
        <time>2012-02-28T18:20:15Z</time>
      </trkpt>
      <trkpt lat="59.9736927" lon="17.7472865">
        <ele>36.6675</ele>
        <time>2012-02-28T18:20:18Z</time>
      </trkpt>
      <trkpt lat="59.9735958" lon="17.7473807">
        <ele>35.2255</ele>
        <time>2012-02-28T18:20:25Z</time>
      </trkpt>
      <trkpt lat="59.973527" lon="17.7474375">
        <ele>34.2642</ele>
        <time>2012-02-28T18:20:30Z</time>
      </trkpt>
      <trkpt lat="59.9734831" lon="17.7474903">
        <ele>33.7834</ele>
        <time>2012-02-28T18:20:33Z</time>
      </trkpt>
      <trkpt lat="59.97339" lon="17.7476021">
        <ele>34.7449</ele>
        <time>2012-02-28T18:20:40Z</time>
      </trkpt>
      <trkpt lat="59.9732743" lon="17.7477471">
        <ele>36.1868</ele>
        <time>2012-02-28T18:20:49Z</time>
      </trkpt>
      <trkpt lat="59.9732062" lon="17.7478445">
        <ele>36.6675</ele>
        <time>2012-02-28T18:20:55Z</time>
      </trkpt>
      <trkpt lat="59.9731759" lon="17.7478833">
        <ele>36.6675</ele>
        <time>2012-02-28T18:20:59Z</time>
      </trkpt>
      <trkpt lat="59.9731147" lon="17.7479315">
        <ele>36.1868</ele>
        <time>2012-02-28T18:21:04Z</time>
      </trkpt>
      <trkpt lat="59.9730239" lon="17.7480254">
        <ele>37.6287</ele>
        <time>2012-02-28T18:21:11Z</time>
      </trkpt>
      <trkpt lat="59.9729394" lon="17.7481713">
        <ele>38.1094</ele>
        <time>2012-02-28T18:21:18Z</time>
      </trkpt>
      <trkpt lat="59.9728567" lon="17.7483257">
        <ele>38.1094</ele>
        <time>2012-02-28T18:21:25Z</time>
      </trkpt>
      <trkpt lat="59.9727629" lon="17.7485242">
        <ele>37.1481</ele>
        <time>2012-02-28T18:21:34Z</time>
      </trkpt>
      <trkpt lat="59.9726692" lon="17.7487148">
        <ele>36.1868</ele>
        <time>2012-02-28T18:21:42Z</time>
      </trkpt>
      <trkpt lat="59.9726042" lon="17.7488627">
        <ele>37.6287</ele>
        <time>2012-02-28T18:21:49Z</time>
      </trkpt>
      <trkpt lat="59.9725582" lon="17.7489668">
        <ele>38.1094</ele>
        <time>2012-02-28T18:21:54Z</time>
      </trkpt>
      <trkpt lat="59.9725174" lon="17.7490783">
        <ele>38.1094</ele>
        <time>2012-02-28T18:21:59Z</time>
      </trkpt>
      <trkpt lat="59.972437" lon="17.749251">
        <ele>36.6675</ele>
        <time>2012-02-28T18:22:07Z</time>
      </trkpt>
      <trkpt lat="59.9724292" lon="17.7492746">
        <ele>36.1868</ele>
        <time>2012-02-28T18:22:08Z</time>
      </trkpt>
      <trkpt lat="59.9723655" lon="17.7493944">
        <ele>35.2255</ele>
        <time>2012-02-28T18:22:14Z</time>
      </trkpt>
      <trkpt lat="59.972317" lon="17.7495072">
        <ele>32.8223</ele>
        <time>2012-02-28T18:22:20Z</time>
      </trkpt>
      <trkpt lat="59.9722843" lon="17.7495869">
        <ele>33.3029</ele>
        <time>2012-02-28T18:22:24Z</time>
      </trkpt>
      <trkpt lat="59.9722605" lon="17.7496404">
        <ele>33.7834</ele>
        <time>2012-02-28T18:22:27Z</time>
      </trkpt>
      <trkpt lat="59.9721917" lon="17.7497573">
        <ele>32.8223</ele>
        <time>2012-02-28T18:22:33Z</time>
      </trkpt>
      <trkpt lat="59.97212" lon="17.7499117">
        <ele>34.2642</ele>
        <time>2012-02-28T18:22:40Z</time>
      </trkpt>
      <trkpt lat="59.9720884" lon="17.7499783">
        <ele>34.7449</ele>
        <time>2012-02-28T18:22:43Z</time>
      </trkpt>
      <trkpt lat="59.9719819" lon="17.7502009">
        <ele>33.3029</ele>
        <time>2012-02-28T18:22:52Z</time>
      </trkpt>
      <trkpt lat="59.9719422" lon="17.7502992">
        <ele>32.8223</ele>
        <time>2012-02-28T18:22:56Z</time>
      </trkpt>
      <trkpt lat="59.971887" lon="17.7504045">
        <ele>32.8223</ele>
        <time>2012-02-28T18:23:01Z</time>
      </trkpt>
      <trkpt lat="59.9718683" lon="17.7504525">
        <ele>32.8223</ele>
        <time>2012-02-28T18:23:03Z</time>
      </trkpt>
      <trkpt lat="59.9717688" lon="17.7506427">
        <ele>32.3416</ele>
        <time>2012-02-28T18:23:11Z</time>
      </trkpt>
      <trkpt lat="59.9717557" lon="17.7506633">
        <ele>32.3416</ele>
        <time>2012-02-28T18:23:12Z</time>
      </trkpt>
      <trkpt lat="59.9717174" lon="17.750749">
        <ele>32.3416</ele>
        <time>2012-02-28T18:23:16Z</time>
      </trkpt>
      <trkpt lat="59.9716995" lon="17.750791">
        <ele>32.3416</ele>
        <time>2012-02-28T18:23:18Z</time>
      </trkpt>
      <trkpt lat="59.9715983" lon="17.7509603">
        <ele>31.8607</ele>
        <time>2012-02-28T18:23:27Z</time>
      </trkpt>
      <trkpt lat="59.9715265" lon="17.7510629">
        <ele>30.4188</ele>
        <time>2012-02-28T18:23:32Z</time>
      </trkpt>
      <trkpt lat="59.97149" lon="17.7511156">
        <ele>31.3801</ele>
        <time>2012-02-28T18:23:35Z</time>
      </trkpt>
      <trkpt lat="59.971417" lon="17.7512215">
        <ele>32.3416</ele>
        <time>2012-02-28T18:23:41Z</time>
      </trkpt>
      <trkpt lat="59.9713363" lon="17.7513051">
        <ele>32.8223</ele>
        <time>2012-02-28T18:23:47Z</time>
      </trkpt>
      <trkpt lat="59.9712585" lon="17.7514295">
        <ele>31.8607</ele>
        <time>2012-02-28T18:23:53Z</time>
      </trkpt>
      <trkpt lat="59.9712405" lon="17.751455">
        <ele>31.8607</ele>
        <time>2012-02-28T18:23:55Z</time>
      </trkpt>
      <trkpt lat="59.9711748" lon="17.7515286">
        <ele>32.3416</ele>
        <time>2012-02-28T18:24:00Z</time>
      </trkpt>
      <trkpt lat="59.9711187" lon="17.7515969">
        <ele>34.2642</ele>
        <time>2012-02-28T18:24:05Z</time>
      </trkpt>
      <trkpt lat="59.9710753" lon="17.7516456">
        <ele>34.7449</ele>
        <time>2012-02-28T18:24:09Z</time>
      </trkpt>
      <trkpt lat="59.9709888" lon="17.7517638">
        <ele>35.7061</ele>
        <time>2012-02-28T18:24:16Z</time>
      </trkpt>
      <trkpt lat="59.9709339" lon="17.7518464">
        <ele>35.7061</ele>
        <time>2012-02-28T18:24:21Z</time>
      </trkpt>
      <trkpt lat="59.9708551" lon="17.7519637">
        <ele>35.7061</ele>
        <time>2012-02-28T18:24:27Z</time>
      </trkpt>
      <trkpt lat="59.9707845" lon="17.7520839">
        <ele>35.7061</ele>
        <time>2012-02-28T18:24:32Z</time>
      </trkpt>
      <trkpt lat="59.9707431" lon="17.7521835">
        <ele>35.7061</ele>
        <time>2012-02-28T18:24:37Z</time>
      </trkpt>
      <trkpt lat="59.9707208" lon="17.7522294">
        <ele>35.2255</ele>
        <time>2012-02-28T18:24:39Z</time>
      </trkpt>
      <trkpt lat="59.9706837" lon="17.7522978">
        <ele>35.2255</ele>
        <time>2012-02-28T18:24:43Z</time>
      </trkpt>
      <trkpt lat="59.9706115" lon="17.7524559">
        <ele>33.3029</ele>
        <time>2012-02-28T18:24:50Z</time>
      </trkpt>
      <trkpt lat="59.9705452" lon="17.7525729">
        <ele>32.8223</ele>
        <time>2012-02-28T18:24:56Z</time>
      </trkpt>
      <trkpt lat="59.9705078" lon="17.7526607">
        <ele>32.3416</ele>
        <time>2012-02-28T18:25:00Z</time>
      </trkpt>
      <trkpt lat="59.9704903" lon="17.7527054">
        <ele>32.3416</ele>
        <time>2012-02-28T18:25:02Z</time>
      </trkpt>
      <trkpt lat="59.9704521" lon="17.7527981">
        <ele>32.3416</ele>
        <time>2012-02-28T18:25:06Z</time>
      </trkpt>
      <trkpt lat="59.9703545" lon="17.753039">
        <ele>30.4188</ele>
        <time>2012-02-28T18:25:16Z</time>
      </trkpt>
      <trkpt lat="59.970308" lon="17.7531941">
        <ele>30.8995</ele>
        <time>2012-02-28T18:25:22Z</time>
      </trkpt>
      <trkpt lat="59.9702794" lon="17.7532753">
        <ele>31.3801</ele>
        <time>2012-02-28T18:25:25Z</time>
      </trkpt>
      <trkpt lat="59.9701827" lon="17.7535001">
        <ele>28.9769</ele>
        <time>2012-02-28T18:25:34Z</time>
      </trkpt>
      <trkpt lat="59.9701209" lon="17.7536617">
        <ele>28.9769</ele>
        <time>2012-02-28T18:25:41Z</time>
      </trkpt>
      <trkpt lat="59.970021" lon="17.7539063">
        <ele>30.4188</ele>
        <time>2012-02-28T18:25:51Z</time>
      </trkpt>
      <trkpt lat="59.9699506" lon="17.7540663">
        <ele>30.8995</ele>
        <time>2012-02-28T18:25:58Z</time>
      </trkpt>
      <trkpt lat="59.9698616" lon="17.7542379">
        <ele>31.8607</ele>
        <time>2012-02-28T18:26:05Z</time>
      </trkpt>
      <trkpt lat="59.9697892" lon="17.7544009">
        <ele>32.8223</ele>
        <time>2012-02-28T18:26:12Z</time>
      </trkpt>
      <trkpt lat="59.9697084" lon="17.7545963">
        <ele>35.2255</ele>
        <time>2012-02-28T18:26:21Z</time>
      </trkpt>
      <trkpt lat="59.9696181" lon="17.7547434">
        <ele>35.2255</ele>
        <time>2012-02-28T18:26:29Z</time>
      </trkpt>
      <trkpt lat="59.969571" lon="17.7548528">
        <ele>36.1868</ele>
        <time>2012-02-28T18:26:34Z</time>
      </trkpt>
      <trkpt lat="59.9695185" lon="17.7549921">
        <ele>36.6675</ele>
        <time>2012-02-28T18:26:40Z</time>
      </trkpt>
      <trkpt lat="59.9694295" lon="17.7551697">
        <ele>37.6287</ele>
        <time>2012-02-28T18:26:48Z</time>
      </trkpt>
      <trkpt lat="59.9693494" lon="17.7553484">
        <ele>37.6287</ele>
        <time>2012-02-28T18:26:56Z</time>
      </trkpt>
      <trkpt lat="59.9692734" lon="17.7555132">
        <ele>36.1868</ele>
        <time>2012-02-28T18:27:03Z</time>
      </trkpt>
      <trkpt lat="59.9692181" lon="17.7556213">
        <ele>35.2255</ele>
        <time>2012-02-28T18:27:08Z</time>
      </trkpt>
      <trkpt lat="59.9691389" lon="17.7557724">
        <ele>34.7449</ele>
        <time>2012-02-28T18:27:15Z</time>
      </trkpt>
      <trkpt lat="59.9690667" lon="17.7559128">
        <ele>34.7449</ele>
        <time>2012-02-28T18:27:22Z</time>
      </trkpt>
      <trkpt lat="59.9689779" lon="17.7560797">
        <ele>32.8223</ele>
        <time>2012-02-28T18:27:30Z</time>
      </trkpt>
      <trkpt lat="59.9689592" lon="17.7560762">
        <ele>31.8607</ele>
        <time>2012-02-28T18:27:32Z</time>
      </trkpt>
      <trkpt lat="59.9690022" lon="17.7559523">
        <ele>29.9381</ele>
        <time>2012-02-28T18:27:35Z</time>
      </trkpt>
      <trkpt lat="59.9691587" lon="17.7556571">
        <ele>28.4962</ele>
        <time>2012-02-28T18:27:42Z</time>
      </trkpt>
      <trkpt lat="59.9692369" lon="17.7554986">
        <ele>29.4575</ele>
        <time>2012-02-28T18:27:46Z</time>
      </trkpt>
      <trkpt lat="59.9693166" lon="17.755293">
        <ele>29.9381</ele>
        <time>2012-02-28T18:27:51Z</time>
      </trkpt>
      <trkpt lat="59.9693962" lon="17.7551194">
        <ele>28.9769</ele>
        <time>2012-02-28T18:27:56Z</time>
      </trkpt>
      <trkpt lat="59.9694829" lon="17.7549232">
        <ele>27.0543</ele>
        <time>2012-02-28T18:28:01Z</time>
      </trkpt>
      <trkpt lat="59.9695713" lon="17.7547553">
        <ele>26.5736</ele>
        <time>2012-02-28T18:28:06Z</time>
      </trkpt>
      <trkpt lat="59.9696651" lon="17.7545911">
        <ele>27.0543</ele>
        <time>2012-02-28T18:28:11Z</time>
      </trkpt>
      <trkpt lat="59.9697431" lon="17.7544362">
        <ele>27.5349</ele>
        <time>2012-02-28T18:28:15Z</time>
      </trkpt>
      <trkpt lat="59.9698287" lon="17.7542637">
        <ele>27.5349</ele>
        <time>2012-02-28T18:28:20Z</time>
      </trkpt>
      <trkpt lat="59.9698935" lon="17.7541269">
        <ele>27.0543</ele>
        <time>2012-02-28T18:28:24Z</time>
      </trkpt>
      <trkpt lat="59.9699621" lon="17.7539772">
        <ele>27.0543</ele>
        <time>2012-02-28T18:28:28Z</time>
      </trkpt>
      <trkpt lat="59.9700559" lon="17.7538151">
        <ele>26.5736</ele>
        <time>2012-02-28T18:28:33Z</time>
      </trkpt>
      <trkpt lat="59.9701164" lon="17.7536906">
        <ele>26.5736</ele>
        <time>2012-02-28T18:28:37Z</time>
      </trkpt>
      <trkpt lat="59.9701787" lon="17.753511">
        <ele>26.0929</ele>
        <time>2012-02-28T18:28:42Z</time>
      </trkpt>
      <trkpt lat="59.9702825" lon="17.7531924">
        <ele>26.5736</ele>
        <time>2012-02-28T18:28:50Z</time>
      </trkpt>
      <trkpt lat="59.9703665" lon="17.752926">
        <ele>27.5349</ele>
        <time>2012-02-28T18:28:56Z</time>
      </trkpt>
      <trkpt lat="59.9704299" lon="17.7527198">
        <ele>27.5349</ele>
        <time>2012-02-28T18:29:01Z</time>
      </trkpt>
      <trkpt lat="59.9705185" lon="17.7524916">
        <ele>27.5349</ele>
        <time>2012-02-28T18:29:07Z</time>
      </trkpt>
      <trkpt lat="59.970592" lon="17.7522802">
        <ele>28.4962</ele>
        <time>2012-02-28T18:29:12Z</time>
      </trkpt>
      <trkpt lat="59.9706752" lon="17.7521176">
        <ele>29.9381</ele>
        <time>2012-02-28T18:29:17Z</time>
      </trkpt>
      <trkpt lat="59.9707267" lon="17.75202">
        <ele>30.4188</ele>
        <time>2012-02-28T18:29:20Z</time>
      </trkpt>
      <trkpt lat="59.9708556" lon="17.7518265">
        <ele>30.4188</ele>
        <time>2012-02-28T18:29:27Z</time>
      </trkpt>
      <trkpt lat="59.9709405" lon="17.7516949">
        <ele>28.4962</ele>
        <time>2012-02-28T18:29:32Z</time>
      </trkpt>
      <trkpt lat="59.9710412" lon="17.7515637">
        <ele>28.4962</ele>
        <time>2012-02-28T18:29:37Z</time>
      </trkpt>
      <trkpt lat="59.971114" lon="17.7514486">
        <ele>28.0155</ele>
        <time>2012-02-28T18:29:41Z</time>
      </trkpt>
      <trkpt lat="59.9711992" lon="17.7513587">
        <ele>27.0543</ele>
        <time>2012-02-28T18:29:45Z</time>
      </trkpt>
      <trkpt lat="59.971329" lon="17.7512484">
        <ele>26.5736</ele>
        <time>2012-02-28T18:29:51Z</time>
      </trkpt>
      <trkpt lat="59.9714354" lon="17.7511371">
        <ele>26.5736</ele>
        <time>2012-02-28T18:29:56Z</time>
      </trkpt>
      <trkpt lat="59.9715387" lon="17.7510085">
        <ele>26.5736</ele>
        <time>2012-02-28T18:30:01Z</time>
      </trkpt>
      <trkpt lat="59.9716335" lon="17.7508983">
        <ele>26.5736</ele>
        <time>2012-02-28T18:30:06Z</time>
      </trkpt>
      <trkpt lat="59.9717451" lon="17.7507299">
        <ele>26.0929</ele>
        <time>2012-02-28T18:30:12Z</time>
      </trkpt>
      <trkpt lat="59.9718462" lon="17.7505698">
        <ele>26.0929</ele>
        <time>2012-02-28T18:30:18Z</time>
      </trkpt>
      <trkpt lat="59.9719279" lon="17.750425">
        <ele>25.6123</ele>
        <time>2012-02-28T18:30:23Z</time>
      </trkpt>
      <trkpt lat="59.9720394" lon="17.750202">
        <ele>25.1317</ele>
        <time>2012-02-28T18:30:30Z</time>
      </trkpt>
      <trkpt lat="59.9720719" lon="17.7501288">
        <ele>25.1317</ele>
        <time>2012-02-28T18:30:32Z</time>
      </trkpt>
      <trkpt lat="59.9721124" lon="17.7500305">
        <ele>25.1317</ele>
        <time>2012-02-28T18:30:35Z</time>
      </trkpt>
      <trkpt lat="59.9721698" lon="17.7498554">
        <ele>25.1317</ele>
        <time>2012-02-28T18:30:39Z</time>
      </trkpt>
      <trkpt lat="59.972219" lon="17.7496917">
        <ele>25.6123</ele>
        <time>2012-02-28T18:30:43Z</time>
      </trkpt>
      <trkpt lat="59.972274" lon="17.7495621">
        <ele>25.6123</ele>
        <time>2012-02-28T18:30:47Z</time>
      </trkpt>
      <trkpt lat="59.9723934" lon="17.7493073">
        <ele>26.5736</ele>
        <time>2012-02-28T18:30:54Z</time>
      </trkpt>
      <trkpt lat="59.9724918" lon="17.7490524">
        <ele>28.4962</ele>
        <time>2012-02-28T18:31:00Z</time>
      </trkpt>
      <trkpt lat="59.9725614" lon="17.7489119">
        <ele>30.4188</ele>
        <time>2012-02-28T18:31:04Z</time>
      </trkpt>
      <trkpt lat="59.9726454" lon="17.748742">
        <ele>30.4188</ele>
        <time>2012-02-28T18:31:09Z</time>
      </trkpt>
      <trkpt lat="59.9726882" lon="17.7486551">
        <ele>30.4188</ele>
        <time>2012-02-28T18:31:12Z</time>
      </trkpt>
      <trkpt lat="59.972805" lon="17.748405">
        <ele>29.9381</ele>
        <time>2012-02-28T18:31:19Z</time>
      </trkpt>
      <trkpt lat="59.9729086" lon="17.7481895">
        <ele>29.4575</ele>
        <time>2012-02-28T18:31:25Z</time>
      </trkpt>
      <trkpt lat="59.9730311" lon="17.7480103">
        <ele>28.9769</ele>
        <time>2012-02-28T18:31:31Z</time>
      </trkpt>
      <trkpt lat="59.973109" lon="17.7479118">
        <ele>28.9769</ele>
        <time>2012-02-28T18:31:35Z</time>
      </trkpt>
      <trkpt lat="59.9732261" lon="17.747788">
        <ele>28.4962</ele>
        <time>2012-02-28T18:31:41Z</time>
      </trkpt>
      <trkpt lat="59.9733441" lon="17.7476838">
        <ele>28.0155</ele>
        <time>2012-02-28T18:31:47Z</time>
      </trkpt>
      <trkpt lat="59.9733862" lon="17.7476357">
        <ele>28.0155</ele>
        <time>2012-02-28T18:31:49Z</time>
      </trkpt>
      <trkpt lat="59.9734732" lon="17.747555">
        <ele>28.0155</ele>
        <time>2012-02-28T18:31:53Z</time>
      </trkpt>
      <trkpt lat="59.9735949" lon="17.7474182">
        <ele>28.0155</ele>
        <time>2012-02-28T18:31:59Z</time>
      </trkpt>
      <trkpt lat="59.9736798" lon="17.7473089">
        <ele>28.9769</ele>
        <time>2012-02-28T18:32:03Z</time>
      </trkpt>
      <trkpt lat="59.9737745" lon="17.7471694">
        <ele>29.4575</ele>
        <time>2012-02-28T18:32:08Z</time>
      </trkpt>
      <trkpt lat="59.9738848" lon="17.7470695">
        <ele>29.4575</ele>
        <time>2012-02-28T18:32:13Z</time>
      </trkpt>
      <trkpt lat="59.9740249" lon="17.7468971">
        <ele>28.0155</ele>
        <time>2012-02-28T18:32:20Z</time>
      </trkpt>
      <trkpt lat="59.9741467" lon="17.746726">
        <ele>29.4575</ele>
        <time>2012-02-28T18:32:26Z</time>
      </trkpt>
      <trkpt lat="59.9742667" lon="17.7465572">
        <ele>29.4575</ele>
        <time>2012-02-28T18:32:32Z</time>
      </trkpt>
      <trkpt lat="59.9743724" lon="17.7464306">
        <ele>29.9381</ele>
        <time>2012-02-28T18:32:37Z</time>
      </trkpt>
      <trkpt lat="59.9744755" lon="17.7462904">
        <ele>29.9381</ele>
        <time>2012-02-28T18:32:42Z</time>
      </trkpt>
      <trkpt lat="59.9746168" lon="17.7460735">
        <ele>29.4575</ele>
        <time>2012-02-28T18:32:49Z</time>
      </trkpt>
      <trkpt lat="59.9747001" lon="17.7458786">
        <ele>29.9381</ele>
        <time>2012-02-28T18:32:54Z</time>
      </trkpt>
      <trkpt lat="59.9747678" lon="17.7457335">
        <ele>29.9381</ele>
        <time>2012-02-28T18:32:58Z</time>
      </trkpt>
      <trkpt lat="59.9748426" lon="17.7455372">
        <ele>30.4188</ele>
        <time>2012-02-28T18:33:03Z</time>
      </trkpt>
      <trkpt lat="59.9749118" lon="17.7452923">
        <ele>31.3801</ele>
        <time>2012-02-28T18:33:09Z</time>
      </trkpt>
      <trkpt lat="59.9749889" lon="17.7450411">
        <ele>32.3416</ele>
        <time>2012-02-28T18:33:15Z</time>
      </trkpt>
      <trkpt lat="59.9750573" lon="17.7448354">
        <ele>32.3416</ele>
        <time>2012-02-28T18:33:20Z</time>
      </trkpt>
      <trkpt lat="59.9751076" lon="17.744638">
        <ele>32.8223</ele>
        <time>2012-02-28T18:33:24Z</time>
      </trkpt>
      <trkpt lat="59.9751841" lon="17.7443033">
        <ele>34.7449</ele>
        <time>2012-02-28T18:33:31Z</time>
      </trkpt>
      <trkpt lat="59.9752371" lon="17.744033">
        <ele>35.2255</ele>
        <time>2012-02-28T18:33:37Z</time>
      </trkpt>
      <trkpt lat="59.9752623" lon="17.7437662">
        <ele>35.7061</ele>
        <time>2012-02-28T18:33:42Z</time>
      </trkpt>
      <trkpt lat="59.9752938" lon="17.7435771">
        <ele>35.7061</ele>
        <time>2012-02-28T18:33:46Z</time>
      </trkpt>
      <trkpt lat="59.9753307" lon="17.7433182">
        <ele>37.1481</ele>
        <time>2012-02-28T18:33:51Z</time>
      </trkpt>
      <trkpt lat="59.9753829" lon="17.7430643">
        <ele>38.1094</ele>
        <time>2012-02-28T18:33:56Z</time>
      </trkpt>
      <trkpt lat="59.9754416" lon="17.7428483">
        <ele>38.1094</ele>
        <time>2012-02-28T18:34:01Z</time>
      </trkpt>
      <trkpt lat="59.9755109" lon="17.7426446">
        <ele>36.6675</ele>
        <time>2012-02-28T18:34:06Z</time>
      </trkpt>
      <trkpt lat="59.9755726" lon="17.7424245">
        <ele>35.7061</ele>
        <time>2012-02-28T18:34:11Z</time>
      </trkpt>
      <trkpt lat="59.9756352" lon="17.7421807">
        <ele>37.1481</ele>
        <time>2012-02-28T18:34:16Z</time>
      </trkpt>
      <trkpt lat="59.975716" lon="17.7418654">
        <ele>37.6287</ele>
        <time>2012-02-28T18:34:23Z</time>
      </trkpt>
      <trkpt lat="59.9757709" lon="17.7416475">
        <ele>37.1481</ele>
        <time>2012-02-28T18:34:28Z</time>
      </trkpt>
      <trkpt lat="59.9758185" lon="17.7414165">
        <ele>37.1481</ele>
        <time>2012-02-28T18:34:33Z</time>
      </trkpt>
      <trkpt lat="59.9758689" lon="17.7411703">
        <ele>38.1094</ele>
        <time>2012-02-28T18:34:38Z</time>
      </trkpt>
      <trkpt lat="59.975921" lon="17.7409221">
        <ele>39.0707</ele>
        <time>2012-02-28T18:34:43Z</time>
      </trkpt>
      <trkpt lat="59.9760015" lon="17.740637">
        <ele>39.5513</ele>
        <time>2012-02-28T18:34:49Z</time>
      </trkpt>
      <trkpt lat="59.9760697" lon="17.7403888">
        <ele>40.0321</ele>
        <time>2012-02-28T18:34:54Z</time>
      </trkpt>
      <trkpt lat="59.9761431" lon="17.740179">
        <ele>40.0321</ele>
        <time>2012-02-28T18:34:59Z</time>
      </trkpt>
      <trkpt lat="59.976214" lon="17.7399546">
        <ele>40.0321</ele>
        <time>2012-02-28T18:35:04Z</time>
      </trkpt>
      <trkpt lat="59.9762072" lon="17.7397778">
        <ele>39.5513</ele>
        <time>2012-02-28T18:35:08Z</time>
      </trkpt>
      <trkpt lat="59.9761348" lon="17.7396401">
        <ele>38.1094</ele>
        <time>2012-02-28T18:35:12Z</time>
      </trkpt>
      <trkpt lat="59.9760076" lon="17.7394549">
        <ele>35.2255</ele>
        <time>2012-02-28T18:35:18Z</time>
      </trkpt>
      <trkpt lat="59.975905" lon="17.7393047">
        <ele>33.7834</ele>
        <time>2012-02-28T18:35:23Z</time>
      </trkpt>
      <trkpt lat="59.9758253" lon="17.7391756">
        <ele>33.3029</ele>
        <time>2012-02-28T18:35:27Z</time>
      </trkpt>
      <trkpt lat="59.9757254" lon="17.7390091">
        <ele>31.8607</ele>
        <time>2012-02-28T18:35:32Z</time>
      </trkpt>
      <trkpt lat="59.975627" lon="17.7388309">
        <ele>29.9381</ele>
        <time>2012-02-28T18:35:37Z</time>
      </trkpt>
      <trkpt lat="59.9754793" lon="17.7386082">
        <ele>29.9381</ele>
        <time>2012-02-28T18:35:44Z</time>
      </trkpt>
      <trkpt lat="59.9753811" lon="17.73844">
        <ele>29.4575</ele>
        <time>2012-02-28T18:35:49Z</time>
      </trkpt>
      <trkpt lat="59.975285" lon="17.7382726">
        <ele>29.4575</ele>
        <time>2012-02-28T18:35:54Z</time>
      </trkpt>
      <trkpt lat="59.9751883" lon="17.7381">
        <ele>29.9381</ele>
        <time>2012-02-28T18:35:59Z</time>
      </trkpt>
      <trkpt lat="59.9750752" lon="17.7378935">
        <ele>29.9381</ele>
        <time>2012-02-28T18:36:05Z</time>
      </trkpt>
      <trkpt lat="59.9749819" lon="17.7377329">
        <ele>28.4962</ele>
        <time>2012-02-28T18:36:10Z</time>
      </trkpt>
      <trkpt lat="59.9749053" lon="17.7375963">
        <ele>28.4962</ele>
        <time>2012-02-28T18:36:14Z</time>
      </trkpt>
      <trkpt lat="59.9748161" lon="17.7374098">
        <ele>28.0155</ele>
        <time>2012-02-28T18:36:19Z</time>
      </trkpt>
      <trkpt lat="59.9747315" lon="17.7371852">
        <ele>26.5736</ele>
        <time>2012-02-28T18:36:25Z</time>
      </trkpt>
      <trkpt lat="59.9746739" lon="17.7370419">
        <ele>26.0929</ele>
        <time>2012-02-28T18:36:29Z</time>
      </trkpt>
      <trkpt lat="59.9745635" lon="17.7367156">
        <ele>26.0929</ele>
        <time>2012-02-28T18:36:37Z</time>
      </trkpt>
      <trkpt lat="59.9744952" lon="17.7365">
        <ele>26.5736</ele>
        <time>2012-02-28T18:36:42Z</time>
      </trkpt>
      <trkpt lat="59.9744242" lon="17.7362386">
        <ele>27.5349</ele>
        <time>2012-02-28T18:36:48Z</time>
      </trkpt>
      <trkpt lat="59.9743728" lon="17.7359946">
        <ele>28.0155</ele>
        <time>2012-02-28T18:36:53Z</time>
      </trkpt>
      <trkpt lat="59.9743289" lon="17.7357589">
        <ele>27.5349</ele>
        <time>2012-02-28T18:36:58Z</time>
      </trkpt>
      <trkpt lat="59.9742864" lon="17.7354541">
        <ele>27.0543</ele>
        <time>2012-02-28T18:37:04Z</time>
      </trkpt>
      <trkpt lat="59.9742548" lon="17.735159">
        <ele>27.0543</ele>
        <time>2012-02-28T18:37:10Z</time>
      </trkpt>
      <trkpt lat="59.9742325" lon="17.7348598">
        <ele>26.5736</ele>
        <time>2012-02-28T18:37:16Z</time>
      </trkpt>
      <trkpt lat="59.9742249" lon="17.7345638">
        <ele>25.6123</ele>
        <time>2012-02-28T18:37:22Z</time>
      </trkpt>
      <trkpt lat="59.9742295" lon="17.7342639">
        <ele>24.651</ele>
        <time>2012-02-28T18:37:28Z</time>
      </trkpt>
      <trkpt lat="59.9742377" lon="17.7339614">
        <ele>25.1317</ele>
        <time>2012-02-28T18:37:34Z</time>
      </trkpt>
      <trkpt lat="59.9742541" lon="17.7337102">
        <ele>24.651</ele>
        <time>2012-02-28T18:37:39Z</time>
      </trkpt>
      <trkpt lat="59.9742843" lon="17.7334609">
        <ele>22.7283</ele>
        <time>2012-02-28T18:37:44Z</time>
      </trkpt>
      <trkpt lat="59.9743067" lon="17.7331701">
        <ele>21.2864</ele>
        <time>2012-02-28T18:37:50Z</time>
      </trkpt>
      <trkpt lat="59.9743192" lon="17.7328289">
        <ele>19.3638</ele>
        <time>2012-02-28T18:37:57Z</time>
      </trkpt>
      <trkpt lat="59.9743201" lon="17.7325175">
        <ele>19.8444</ele>
        <time>2012-02-28T18:38:03Z</time>
      </trkpt>
      <trkpt lat="59.9743135" lon="17.7322517">
        <ele>20.325</ele>
        <time>2012-02-28T18:38:08Z</time>
      </trkpt>
      <trkpt lat="59.9743046" lon="17.7319297">
        <ele>20.8057</ele>
        <time>2012-02-28T18:38:14Z</time>
      </trkpt>
      <trkpt lat="59.9742989" lon="17.731627">
        <ele>21.767</ele>
        <time>2012-02-28T18:38:20Z</time>
      </trkpt>
      <trkpt lat="59.9742961" lon="17.7313828">
        <ele>22.7283</ele>
        <time>2012-02-28T18:38:25Z</time>
      </trkpt>
      <trkpt lat="59.9743036" lon="17.7311372">
        <ele>23.209</ele>
        <time>2012-02-28T18:38:30Z</time>
      </trkpt>
      <trkpt lat="59.9743185" lon="17.7308341">
        <ele>24.1703</ele>
        <time>2012-02-28T18:38:36Z</time>
      </trkpt>
      <trkpt lat="59.9743326" lon="17.7305808">
        <ele>25.1317</ele>
        <time>2012-02-28T18:38:41Z</time>
      </trkpt>
      <trkpt lat="59.9743563" lon="17.7302979">
        <ele>25.1317</ele>
        <time>2012-02-28T18:38:47Z</time>
      </trkpt>
      <trkpt lat="59.9743724" lon="17.7299841">
        <ele>25.6123</ele>
        <time>2012-02-28T18:38:53Z</time>
      </trkpt>
      <trkpt lat="59.9743899" lon="17.7296597">
        <ele>27.0543</ele>
        <time>2012-02-28T18:38:59Z</time>
      </trkpt>
      <trkpt lat="59.9743955" lon="17.729425">
        <ele>27.0543</ele>
        <time>2012-02-28T18:39:04Z</time>
      </trkpt>
      <trkpt lat="59.9743983" lon="17.7291589">
        <ele>28.0155</ele>
        <time>2012-02-28T18:39:09Z</time>
      </trkpt>
      <trkpt lat="59.9743911" lon="17.7289159">
        <ele>28.4962</ele>
        <time>2012-02-28T18:39:14Z</time>
      </trkpt>
      <trkpt lat="59.9743826" lon="17.7286594">
        <ele>29.9381</ele>
        <time>2012-02-28T18:39:19Z</time>
      </trkpt>
      <trkpt lat="59.9743745" lon="17.7283476">
        <ele>29.4575</ele>
        <time>2012-02-28T18:39:25Z</time>
      </trkpt>
      <trkpt lat="59.9743693" lon="17.7280343">
        <ele>29.4575</ele>
        <time>2012-02-28T18:39:31Z</time>
      </trkpt>
      <trkpt lat="59.9743889" lon="17.7278075">
        <ele>29.4575</ele>
        <time>2012-02-28T18:39:36Z</time>
      </trkpt>
      <trkpt lat="59.9743979" lon="17.7277675">
        <ele>29.4575</ele>
        <time>2012-02-28T18:39:37Z</time>
      </trkpt>
      <trkpt lat="59.9744085" lon="17.7277388">
        <ele>29.4575</ele>
        <time>2012-02-28T18:39:38Z</time>
      </trkpt>
      <trkpt lat="59.9744246" lon="17.7278072">
        <ele>28.0155</ele>
        <time>2012-02-28T18:39:42Z</time>
      </trkpt>
      <trkpt lat="59.9744696" lon="17.7279659">
        <ele>28.4962</ele>
        <time>2012-02-28T18:39:46Z</time>
      </trkpt>
      <trkpt lat="59.9745072" lon="17.7281345">
        <ele>29.9381</ele>
        <time>2012-02-28T18:39:50Z</time>
      </trkpt>
      <trkpt lat="59.9745349" lon="17.7283461">
        <ele>34.2642</ele>
        <time>2012-02-28T18:39:55Z</time>
      </trkpt>
      <trkpt lat="59.9745376" lon="17.7285216">
        <ele>36.1868</ele>
        <time>2012-02-28T18:40:00Z</time>
      </trkpt>
      <trkpt lat="59.9745449" lon="17.7286606">
        <ele>36.1868</ele>
        <time>2012-02-28T18:40:03Z</time>
      </trkpt>
      <trkpt lat="59.9745523" lon="17.7288024">
        <ele>36.6675</ele>
        <time>2012-02-28T18:40:08Z</time>
      </trkpt>
      <trkpt lat="59.9745533" lon="17.7290343">
        <ele>36.6675</ele>
        <time>2012-02-28T18:40:12Z</time>
      </trkpt>
      <trkpt lat="59.9745532" lon="17.7292226">
        <ele>34.7449</ele>
        <time>2012-02-28T18:40:17Z</time>
      </trkpt>
      <trkpt lat="59.9745536" lon="17.7293266">
        <ele>33.3029</ele>
        <time>2012-02-28T18:40:22Z</time>
      </trkpt>
      <trkpt lat="59.9745561" lon="17.729349">
        <ele>33.3029</ele>
        <time>2012-02-28T18:40:23Z</time>
      </trkpt>
      <trkpt lat="59.9745361" lon="17.7295319">
        <ele>31.8607</ele>
        <time>2012-02-28T18:40:29Z</time>
      </trkpt>
      <trkpt lat="59.9745307" lon="17.729755">
        <ele>32.8223</ele>
        <time>2012-02-28T18:40:35Z</time>
      </trkpt>
      <trkpt lat="59.974516" lon="17.7298624">
        <ele>31.8607</ele>
        <time>2012-02-28T18:40:39Z</time>
      </trkpt>
      <trkpt lat="59.9745178" lon="17.7299918">
        <ele>30.4188</ele>
        <time>2012-02-28T18:40:43Z</time>
      </trkpt>
      <trkpt lat="59.9745154" lon="17.7301559">
        <ele>31.8607</ele>
        <time>2012-02-28T18:40:48Z</time>
      </trkpt>
      <trkpt lat="59.9745196" lon="17.7302817">
        <ele>33.3029</ele>
        <time>2012-02-28T18:40:52Z</time>
      </trkpt>
      <trkpt lat="59.9745221" lon="17.7303989">
        <ele>33.3029</ele>
        <time>2012-02-28T18:40:55Z</time>
      </trkpt>
      <trkpt lat="59.97452" lon="17.7305356">
        <ele>33.3029</ele>
        <time>2012-02-28T18:41:00Z</time>
      </trkpt>
      <trkpt lat="59.9745058" lon="17.7306539">
        <ele>33.3029</ele>
        <time>2012-02-28T18:41:04Z</time>
      </trkpt>
      <trkpt lat="59.9745066" lon="17.7308117">
        <ele>34.2642</ele>
        <time>2012-02-28T18:41:10Z</time>
      </trkpt>
      <trkpt lat="59.9745199" lon="17.7309717">
        <ele>35.7061</ele>
        <time>2012-02-28T18:41:15Z</time>
      </trkpt>
      <trkpt lat="59.9745108" lon="17.7311432">
        <ele>37.1481</ele>
        <time>2012-02-28T18:41:21Z</time>
      </trkpt>
      <trkpt lat="59.9745136" lon="17.7313055">
        <ele>38.1094</ele>
        <time>2012-02-28T18:41:26Z</time>
      </trkpt>
      <trkpt lat="59.9745117" lon="17.7314686">
        <ele>38.1094</ele>
        <time>2012-02-28T18:41:32Z</time>
      </trkpt>
      <trkpt lat="59.9744905" lon="17.7317511">
        <ele>37.6287</ele>
        <time>2012-02-28T18:41:42Z</time>
      </trkpt>
      <trkpt lat="59.9744766" lon="17.7319119">
        <ele>35.7061</ele>
        <time>2012-02-28T18:41:48Z</time>
      </trkpt>
      <trkpt lat="59.9744739" lon="17.7320467">
        <ele>34.2642</ele>
        <time>2012-02-28T18:41:52Z</time>
      </trkpt>
      <trkpt lat="59.9744657" lon="17.7321833">
        <ele>31.8607</ele>
        <time>2012-02-28T18:41:57Z</time>
      </trkpt>
      <trkpt lat="59.9744599" lon="17.7323456">
        <ele>28.4962</ele>
        <time>2012-02-28T18:42:03Z</time>
      </trkpt>
      <trkpt lat="59.974444" lon="17.7325737">
        <ele>24.651</ele>
        <time>2012-02-28T18:42:10Z</time>
      </trkpt>
      <trkpt lat="59.9744276" lon="17.7328106">
        <ele>22.2476</ele>
        <time>2012-02-28T18:42:17Z</time>
      </trkpt>
      <trkpt lat="59.9744102" lon="17.7330372">
        <ele>21.767</ele>
        <time>2012-02-28T18:42:24Z</time>
      </trkpt>
      <trkpt lat="59.9744138" lon="17.733224">
        <ele>19.8444</ele>
        <time>2012-02-28T18:42:29Z</time>
      </trkpt>
      <trkpt lat="59.9743955" lon="17.7333848">
        <ele>18.8831</ele>
        <time>2012-02-28T18:42:35Z</time>
      </trkpt>
      <trkpt lat="59.9743798" lon="17.7335685">
        <ele>18.8831</ele>
        <time>2012-02-28T18:42:42Z</time>
      </trkpt>
      <trkpt lat="59.974378" lon="17.7338565">
        <ele>22.7283</ele>
        <time>2012-02-28T18:42:51Z</time>
      </trkpt>
      <trkpt lat="59.9743781" lon="17.7340756">
        <ele>25.6123</ele>
        <time>2012-02-28T18:42:58Z</time>
      </trkpt>
      <trkpt lat="59.9743698" lon="17.7343507">
        <ele>27.5349</ele>
        <time>2012-02-28T18:43:07Z</time>
      </trkpt>
      <trkpt lat="59.9743647" lon="17.7345107">
        <ele>28.4962</ele>
        <time>2012-02-28T18:43:13Z</time>
      </trkpt>
      <trkpt lat="59.9743666" lon="17.7346148">
        <ele>28.4962</ele>
        <time>2012-02-28T18:43:16Z</time>
      </trkpt>
      <trkpt lat="59.9743769" lon="17.734775">
        <ele>29.9381</ele>
        <time>2012-02-28T18:43:20Z</time>
      </trkpt>
      <trkpt lat="59.9743802" lon="17.7348005">
        <ele>29.4575</ele>
        <time>2012-02-28T18:43:21Z</time>
      </trkpt>
      <trkpt lat="59.9744091" lon="17.7349812">
        <ele>30.8995</ele>
        <time>2012-02-28T18:43:27Z</time>
      </trkpt>
      <trkpt lat="59.9744144" lon="17.735171">
        <ele>31.3801</ele>
        <time>2012-02-28T18:43:33Z</time>
      </trkpt>
      <trkpt lat="59.9744456" lon="17.73542">
        <ele>32.8223</ele>
        <time>2012-02-28T18:43:42Z</time>
      </trkpt>
      <trkpt lat="59.9744802" lon="17.7356442">
        <ele>33.7834</ele>
        <time>2012-02-28T18:43:50Z</time>
      </trkpt>
      <trkpt lat="59.974501" lon="17.7358639">
        <ele>33.3029</ele>
        <time>2012-02-28T18:43:58Z</time>
      </trkpt>
      <trkpt lat="59.9745059" lon="17.7358903">
        <ele>33.3029</ele>
        <time>2012-02-28T18:43:59Z</time>
      </trkpt>
      <trkpt lat="59.9745413" lon="17.7359878">
        <ele>32.3416</ele>
        <time>2012-02-28T18:44:04Z</time>
      </trkpt>
      <trkpt lat="59.9745639" lon="17.7361075">
        <ele>31.8607</ele>
        <time>2012-02-28T18:44:09Z</time>
      </trkpt>
      <trkpt lat="59.9745838" lon="17.7361784">
        <ele>31.8607</ele>
        <time>2012-02-28T18:44:12Z</time>
      </trkpt>
      <trkpt lat="59.9746127" lon="17.7362951">
        <ele>30.8995</ele>
        <time>2012-02-28T18:44:17Z</time>
      </trkpt>
      <trkpt lat="59.974639" lon="17.7364486">
        <ele>28.4962</ele>
        <time>2012-02-28T18:44:24Z</time>
      </trkpt>
      <trkpt lat="59.9746868" lon="17.736504">
        <ele>27.0543</ele>
        <time>2012-02-28T18:44:28Z</time>
      </trkpt>
      <trkpt lat="59.9747532" lon="17.7366161">
        <ele>26.5736</ele>
        <time>2012-02-28T18:44:34Z</time>
      </trkpt>
      <trkpt lat="59.9748143" lon="17.7367905">
        <ele>27.0543</ele>
        <time>2012-02-28T18:44:41Z</time>
      </trkpt>
      <trkpt lat="59.9748619" lon="17.7369124">
        <ele>27.5349</ele>
        <time>2012-02-28T18:44:47Z</time>
      </trkpt>
      <trkpt lat="59.974908" lon="17.7370293">
        <ele>28.0155</ele>
        <time>2012-02-28T18:44:52Z</time>
      </trkpt>
      <trkpt lat="59.9749604" lon="17.7371652">
        <ele>28.0155</ele>
        <time>2012-02-28T18:44:58Z</time>
      </trkpt>
      <trkpt lat="59.9749627" lon="17.737193">
        <ele>27.5349</ele>
        <time>2012-02-28T18:44:59Z</time>
      </trkpt>
      <trkpt lat="59.975019" lon="17.7372729">
        <ele>26.5736</ele>
        <time>2012-02-28T18:45:04Z</time>
      </trkpt>
      <trkpt lat="59.9750941" lon="17.7373679">
        <ele>26.0929</ele>
        <time>2012-02-28T18:45:10Z</time>
      </trkpt>
      <trkpt lat="59.9751111" lon="17.7374056">
        <ele>25.6123</ele>
        <time>2012-02-28T18:45:12Z</time>
      </trkpt>
      <trkpt lat="59.97515" lon="17.7374686">
        <ele>24.1703</ele>
        <time>2012-02-28T18:45:16Z</time>
      </trkpt>
      <trkpt lat="59.9752162" lon="17.7375663">
        <ele>23.209</ele>
        <time>2012-02-28T18:45:23Z</time>
      </trkpt>
      <trkpt lat="59.9752758" lon="17.7376257">
        <ele>22.7283</ele>
        <time>2012-02-28T18:45:28Z</time>
      </trkpt>
      <trkpt lat="59.9753227" lon="17.7376965">
        <ele>23.6896</ele>
        <time>2012-02-28T18:45:33Z</time>
      </trkpt>
      <trkpt lat="59.9753554" lon="17.7377516">
        <ele>25.1317</ele>
        <time>2012-02-28T18:45:36Z</time>
      </trkpt>
      <trkpt lat="59.9754354" lon="17.7378638">
        <ele>29.4575</ele>
        <time>2012-02-28T18:45:42Z</time>
      </trkpt>
      <trkpt lat="59.9755383" lon="17.7379656">
        <ele>34.2642</ele>
        <time>2012-02-28T18:45:48Z</time>
      </trkpt>
      <trkpt lat="59.9755855" lon="17.7380876">
        <ele>36.1868</ele>
        <time>2012-02-28T18:45:53Z</time>
      </trkpt>
      <trkpt lat="59.975647" lon="17.7381613">
        <ele>37.6287</ele>
        <time>2012-02-28T18:45:57Z</time>
      </trkpt>
      <trkpt lat="59.9756721" lon="17.7381914">
        <ele>38.1094</ele>
        <time>2012-02-28T18:45:59Z</time>
      </trkpt>
      <trkpt lat="59.9757115" lon="17.7383707">
        <ele>38.5901</ele>
        <time>2012-02-28T18:46:05Z</time>
      </trkpt>
      <trkpt lat="59.9757667" lon="17.7386106">
        <ele>39.0707</ele>
        <time>2012-02-28T18:46:13Z</time>
      </trkpt>
      <trkpt lat="59.9758073" lon="17.7387544">
        <ele>37.6287</ele>
        <time>2012-02-28T18:46:19Z</time>
      </trkpt>
      <trkpt lat="59.9758594" lon="17.7388466">
        <ele>36.1868</ele>
        <time>2012-02-28T18:46:25Z</time>
      </trkpt>
      <trkpt lat="59.9759508" lon="17.7389863">
        <ele>34.7449</ele>
        <time>2012-02-28T18:46:34Z</time>
      </trkpt>
      <trkpt lat="59.9760088" lon="17.7390533">
        <ele>34.2642</ele>
        <time>2012-02-28T18:46:39Z</time>
      </trkpt>
      <trkpt lat="59.97602" lon="17.7390685">
        <ele>34.2642</ele>
        <time>2012-02-28T18:46:40Z</time>
      </trkpt>
      <trkpt lat="59.9760973" lon="17.7391637">
        <ele>32.8223</ele>
        <time>2012-02-28T18:46:46Z</time>
      </trkpt>
      <trkpt lat="59.9761761" lon="17.7392339">
        <ele>33.3029</ele>
        <time>2012-02-28T18:46:52Z</time>
      </trkpt>
      <trkpt lat="59.9761868" lon="17.7392513">
        <ele>33.7834</ele>
        <time>2012-02-28T18:46:53Z</time>
      </trkpt>
      <trkpt lat="59.9762244" lon="17.7393614">
        <ele>34.7449</ele>
        <time>2012-02-28T18:46:59Z</time>
      </trkpt>
      <trkpt lat="59.97626" lon="17.7394636">
        <ele>32.8223</ele>
        <time>2012-02-28T18:47:05Z</time>
      </trkpt>
      <trkpt lat="59.9763073" lon="17.7395522">
        <ele>32.8223</ele>
        <time>2012-02-28T18:47:09Z</time>
      </trkpt>
      <trkpt lat="59.9763629" lon="17.7396299">
        <ele>33.3029</ele>
        <time>2012-02-28T18:47:15Z</time>
      </trkpt>
      <trkpt lat="59.9764106" lon="17.7396432">
        <ele>33.7834</ele>
        <time>2012-02-28T18:47:21Z</time>
      </trkpt>
      <trkpt lat="59.9764572" lon="17.7396126">
        <ele>32.8223</ele>
        <time>2012-02-28T18:47:27Z</time>
      </trkpt>
      <trkpt lat="59.9764822" lon="17.7395645">
        <ele>32.3416</ele>
        <time>2012-02-28T18:47:31Z</time>
      </trkpt>
      <trkpt lat="59.9765269" lon="17.7394846">
        <ele>31.8607</ele>
        <time>2012-02-28T18:47:37Z</time>
      </trkpt>
      <trkpt lat="59.9765986" lon="17.7394321">
        <ele>31.8607</ele>
        <time>2012-02-28T18:47:43Z</time>
      </trkpt>
      <trkpt lat="59.9766452" lon="17.7394093">
        <ele>31.8607</ele>
        <time>2012-02-28T18:47:47Z</time>
      </trkpt>
      <trkpt lat="59.9767406" lon="17.7393513">
        <ele>32.3416</ele>
        <time>2012-02-28T18:47:55Z</time>
      </trkpt>
      <trkpt lat="59.9768147" lon="17.7392958">
        <ele>31.8607</ele>
        <time>2012-02-28T18:48:01Z</time>
      </trkpt>
      <trkpt lat="59.9768789" lon="17.7392559">
        <ele>31.3801</ele>
        <time>2012-02-28T18:48:07Z</time>
      </trkpt>
      <trkpt lat="59.9769343" lon="17.7392589">
        <ele>30.4188</ele>
        <time>2012-02-28T18:48:12Z</time>
      </trkpt>
      <trkpt lat="59.9770296" lon="17.7392627">
        <ele>28.9769</ele>
        <time>2012-02-28T18:48:19Z</time>
      </trkpt>
      <trkpt lat="59.9770446" lon="17.7392682">
        <ele>28.4962</ele>
        <time>2012-02-28T18:48:20Z</time>
      </trkpt>
      <trkpt lat="59.9771049" lon="17.7392392">
        <ele>28.4962</ele>
        <time>2012-02-28T18:48:25Z</time>
      </trkpt>
      <trkpt lat="59.9771982" lon="17.7391713">
        <ele>28.9769</ele>
        <time>2012-02-28T18:48:33Z</time>
      </trkpt>
      <trkpt lat="59.9772612" lon="17.7391216">
        <ele>29.4575</ele>
        <time>2012-02-28T18:48:38Z</time>
      </trkpt>
      <trkpt lat="59.9772731" lon="17.7391144">
        <ele>29.4575</ele>
        <time>2012-02-28T18:48:39Z</time>
      </trkpt>
      <trkpt lat="59.9773094" lon="17.7390953">
        <ele>29.9381</ele>
        <time>2012-02-28T18:48:42Z</time>
      </trkpt>
      <trkpt lat="59.9773541" lon="17.7390498">
        <ele>31.3801</ele>
        <time>2012-02-28T18:48:46Z</time>
      </trkpt>
      <trkpt lat="59.977392" lon="17.7390141">
        <ele>32.3416</ele>
        <time>2012-02-28T18:48:49Z</time>
      </trkpt>
      <trkpt lat="59.9774694" lon="17.7389713">
        <ele>33.3029</ele>
        <time>2012-02-28T18:48:55Z</time>
      </trkpt>
      <trkpt lat="59.9775679" lon="17.7389492">
        <ele>34.2642</ele>
        <time>2012-02-28T18:49:02Z</time>
      </trkpt>
      <trkpt lat="59.977654" lon="17.7389249">
        <ele>34.2642</ele>
        <time>2012-02-28T18:49:09Z</time>
      </trkpt>
      <trkpt lat="59.9777349" lon="17.7389171">
        <ele>31.8607</ele>
        <time>2012-02-28T18:49:16Z</time>
      </trkpt>
      <trkpt lat="59.9778477" lon="17.7389472">
        <ele>32.3416</ele>
        <time>2012-02-28T18:49:24Z</time>
      </trkpt>
      <trkpt lat="59.9779058" lon="17.7389735">
        <ele>32.3416</ele>
        <time>2012-02-28T18:49:28Z</time>
      </trkpt>
      <trkpt lat="59.9779677" lon="17.7389913">
        <ele>30.8995</ele>
        <time>2012-02-28T18:49:33Z</time>
      </trkpt>
      <trkpt lat="59.9780072" lon="17.739057">
        <ele>29.4575</ele>
        <time>2012-02-28T18:49:38Z</time>
      </trkpt>
      <trkpt lat="59.9780962" lon="17.7391198">
        <ele>30.4188</ele>
        <time>2012-02-28T18:49:45Z</time>
      </trkpt>
      <trkpt lat="59.9781389" lon="17.739128">
        <ele>30.8995</ele>
        <time>2012-02-28T18:49:48Z</time>
      </trkpt>
      <trkpt lat="59.9781627" lon="17.7391378">
        <ele>29.9381</ele>
        <time>2012-02-28T18:49:50Z</time>
      </trkpt>
      <trkpt lat="59.9782723" lon="17.7391695">
        <ele>31.8607</ele>
        <time>2012-02-28T18:49:57Z</time>
      </trkpt>
      <trkpt lat="59.9783419" lon="17.7391813">
        <ele>31.8607</ele>
        <time>2012-02-28T18:50:03Z</time>
      </trkpt>
      <trkpt lat="59.978434" lon="17.7392097">
        <ele>31.3801</ele>
        <time>2012-02-28T18:50:09Z</time>
      </trkpt>
      <trkpt lat="59.9785163" lon="17.7392471">
        <ele>31.3801</ele>
        <time>2012-02-28T18:50:15Z</time>
      </trkpt>
      <trkpt lat="59.9786179" lon="17.7392848">
        <ele>31.3801</ele>
        <time>2012-02-28T18:50:21Z</time>
      </trkpt>
      <trkpt lat="59.9787019" lon="17.7393155">
        <ele>30.4188</ele>
        <time>2012-02-28T18:50:26Z</time>
      </trkpt>
      <trkpt lat="59.9787175" lon="17.7393196">
        <ele>29.9381</ele>
        <time>2012-02-28T18:50:27Z</time>
      </trkpt>
      <trkpt lat="59.978781" lon="17.739291">
        <ele>29.9381</ele>
        <time>2012-02-28T18:50:32Z</time>
      </trkpt>
      <trkpt lat="59.9788288" lon="17.7392543">
        <ele>28.9769</ele>
        <time>2012-02-28T18:50:37Z</time>
      </trkpt>
      <trkpt lat="59.9788739" lon="17.7392368">
        <ele>27.5349</ele>
        <time>2012-02-28T18:50:41Z</time>
      </trkpt>
      <trkpt lat="59.9789134" lon="17.7391718">
        <ele>28.9769</ele>
        <time>2012-02-28T18:50:45Z</time>
      </trkpt>
      <trkpt lat="59.9790127" lon="17.7391471">
        <ele>31.8607</ele>
        <time>2012-02-28T18:50:51Z</time>
      </trkpt>
      <trkpt lat="59.9790804" lon="17.739126">
        <ele>32.3416</ele>
        <time>2012-02-28T18:50:55Z</time>
      </trkpt>
      <trkpt lat="59.9791526" lon="17.7390901">
        <ele>33.7834</ele>
        <time>2012-02-28T18:51:01Z</time>
      </trkpt>
      <trkpt lat="59.9792112" lon="17.7390304">
        <ele>34.7449</ele>
        <time>2012-02-28T18:51:07Z</time>
      </trkpt>
      <trkpt lat="59.9792236" lon="17.7390241">
        <ele>34.2642</ele>
        <time>2012-02-28T18:51:08Z</time>
      </trkpt>
      <trkpt lat="59.9793107" lon="17.7389895">
        <ele>34.2642</ele>
        <time>2012-02-28T18:51:14Z</time>
      </trkpt>
      <trkpt lat="59.9794127" lon="17.7389348">
        <ele>34.2642</ele>
        <time>2012-02-28T18:51:21Z</time>
      </trkpt>
      <trkpt lat="59.9794402" lon="17.738916">
        <ele>34.2642</ele>
        <time>2012-02-28T18:51:23Z</time>
      </trkpt>
      <trkpt lat="59.979497" lon="17.7388798">
        <ele>34.2642</ele>
        <time>2012-02-28T18:51:28Z</time>
      </trkpt>
      <trkpt lat="59.9795462" lon="17.7388399">
        <ele>33.7834</ele>
        <time>2012-02-28T18:51:32Z</time>
      </trkpt>
      <trkpt lat="59.979626" lon="17.7388114">
        <ele>29.9381</ele>
        <time>2012-02-28T18:51:39Z</time>
      </trkpt>
      <trkpt lat="59.9796395" lon="17.7388093">
        <ele>29.4575</ele>
        <time>2012-02-28T18:51:40Z</time>
      </trkpt>
      <trkpt lat="59.9797359" lon="17.7387793">
        <ele>28.4962</ele>
        <time>2012-02-28T18:51:46Z</time>
      </trkpt>
      <trkpt lat="59.979799" lon="17.738734">
        <ele>29.9381</ele>
        <time>2012-02-28T18:51:51Z</time>
      </trkpt>
      <trkpt lat="59.9798664" lon="17.7387252">
        <ele>30.4188</ele>
        <time>2012-02-28T18:51:56Z</time>
      </trkpt>
      <trkpt lat="59.9799006" lon="17.738718">
        <ele>29.4575</ele>
        <time>2012-02-28T18:51:59Z</time>
      </trkpt>
      <trkpt lat="59.9799279" lon="17.7387026">
        <ele>28.4962</ele>
        <time>2012-02-28T18:52:02Z</time>
      </trkpt>
      <trkpt lat="59.9800121" lon="17.73871">
        <ele>25.1317</ele>
        <time>2012-02-28T18:52:10Z</time>
      </trkpt>
      <trkpt lat="59.9800886" lon="17.7387445">
        <ele>25.6123</ele>
        <time>2012-02-28T18:52:15Z</time>
      </trkpt>
      <trkpt lat="59.9801466" lon="17.7387705">
        <ele>25.1317</ele>
        <time>2012-02-28T18:52:19Z</time>
      </trkpt>
      <trkpt lat="59.9802203" lon="17.7387539">
        <ele>24.1703</ele>
        <time>2012-02-28T18:52:25Z</time>
      </trkpt>
      <trkpt lat="59.9802685" lon="17.7387364">
        <ele>22.7283</ele>
        <time>2012-02-28T18:52:29Z</time>
      </trkpt>
      <trkpt lat="59.9803114" lon="17.7387394">
        <ele>23.6896</ele>
        <time>2012-02-28T18:52:32Z</time>
      </trkpt>
      <trkpt lat="59.9804039" lon="17.7386788">
        <ele>29.4575</ele>
        <time>2012-02-28T18:52:38Z</time>
      </trkpt>
      <trkpt lat="59.9804718" lon="17.738671">
        <ele>30.8995</ele>
        <time>2012-02-28T18:52:43Z</time>
      </trkpt>
      <trkpt lat="59.9805317" lon="17.7386441">
        <ele>30.4188</ele>
        <time>2012-02-28T18:52:48Z</time>
      </trkpt>
      <trkpt lat="59.9806187" lon="17.7385945">
        <ele>31.3801</ele>
        <time>2012-02-28T18:52:55Z</time>
      </trkpt>
      <trkpt lat="59.9807034" lon="17.7385826">
        <ele>32.3416</ele>
        <time>2012-02-28T18:53:01Z</time>
      </trkpt>
      <trkpt lat="59.9807905" lon="17.7385555">
        <ele>37.1481</ele>
        <time>2012-02-28T18:53:07Z</time>
      </trkpt>
      <trkpt lat="59.9808481" lon="17.7385746">
        <ele>37.6287</ele>
        <time>2012-02-28T18:53:10Z</time>
      </trkpt>
      <trkpt lat="59.9808533" lon="17.7386637">
        <ele>40.0321</ele>
        <time>2012-02-28T18:53:15Z</time>
      </trkpt>
      <trkpt lat="59.9808382" lon="17.7387109">
        <ele>41.474</ele>
        <time>2012-02-28T18:53:20Z</time>
      </trkpt>
      <trkpt lat="59.9808308" lon="17.7387229">
        <ele>41.9547</ele>
        <time>2012-02-28T18:53:21Z</time>
      </trkpt>
      <trkpt lat="59.980796" lon="17.7387316">
        <ele>41.9547</ele>
        <time>2012-02-28T18:53:23Z</time>
      </trkpt>
      <trkpt lat="59.9807548" lon="17.7387368">
        <ele>42.4354</ele>
        <time>2012-02-28T18:53:26Z</time>
      </trkpt>
      <trkpt lat="59.9807054" lon="17.7387941">
        <ele>43.8773</ele>
        <time>2012-02-28T18:53:31Z</time>
      </trkpt>
      <trkpt lat="59.9806924" lon="17.7388156">
        <ele>44.358</ele>
        <time>2012-02-28T18:53:33Z</time>
      </trkpt>
      <trkpt lat="59.9806267" lon="17.7388389">
        <ele>44.8386</ele>
        <time>2012-02-28T18:53:38Z</time>
      </trkpt>
      <trkpt lat="59.9805498" lon="17.7388529">
        <ele>45.7999</ele>
        <time>2012-02-28T18:53:45Z</time>
      </trkpt>
      <trkpt lat="59.9805278" lon="17.738858">
        <ele>46.2806</ele>
        <time>2012-02-28T18:53:47Z</time>
      </trkpt>
      <trkpt lat="59.9804694" lon="17.7388527">
        <ele>44.358</ele>
        <time>2012-02-28T18:53:51Z</time>
      </trkpt>
      <trkpt lat="59.9803688" lon="17.7388896">
        <ele>42.4354</ele>
        <time>2012-02-28T18:53:57Z</time>
      </trkpt>
      <trkpt lat="59.9803179" lon="17.7388985">
        <ele>42.916</ele>
        <time>2012-02-28T18:54:02Z</time>
      </trkpt>
      <trkpt lat="59.9802586" lon="17.7388912">
        <ele>42.4354</ele>
        <time>2012-02-28T18:54:05Z</time>
      </trkpt>
      <trkpt lat="59.9802223" lon="17.7388864">
        <ele>41.9547</ele>
        <time>2012-02-28T18:54:08Z</time>
      </trkpt>
      <trkpt lat="59.9801555" lon="17.7388579">
        <ele>41.474</ele>
        <time>2012-02-28T18:54:13Z</time>
      </trkpt>
      <trkpt lat="59.9801457" lon="17.7388503">
        <ele>41.9547</ele>
        <time>2012-02-28T18:54:14Z</time>
      </trkpt>
      <trkpt lat="59.9800926" lon="17.7388471">
        <ele>41.474</ele>
        <time>2012-02-28T18:54:18Z</time>
      </trkpt>
      <trkpt lat="59.9800331" lon="17.7388658">
        <ele>42.916</ele>
        <time>2012-02-28T18:54:23Z</time>
      </trkpt>
      <trkpt lat="59.9799277" lon="17.7388606">
        <ele>42.916</ele>
        <time>2012-02-28T18:54:30Z</time>
      </trkpt>
      <trkpt lat="59.9798709" lon="17.7388594">
        <ele>42.4354</ele>
        <time>2012-02-28T18:54:34Z</time>
      </trkpt>
      <trkpt lat="59.97984" lon="17.7388767">
        <ele>42.4354</ele>
        <time>2012-02-28T18:54:36Z</time>
      </trkpt>
      <trkpt lat="59.9797663" lon="17.7389263">
        <ele>42.916</ele>
        <time>2012-02-28T18:54:42Z</time>
      </trkpt>
      <trkpt lat="59.979708" lon="17.7389635">
        <ele>42.916</ele>
        <time>2012-02-28T18:54:46Z</time>
      </trkpt>
      <trkpt lat="59.9796582" lon="17.7389782">
        <ele>43.8773</ele>
        <time>2012-02-28T18:54:50Z</time>
      </trkpt>
      <trkpt lat="59.9795914" lon="17.739018">
        <ele>43.3966</ele>
        <time>2012-02-28T18:54:55Z</time>
      </trkpt>
      <trkpt lat="59.979538" lon="17.7390327">
        <ele>42.4354</ele>
        <time>2012-02-28T18:54:59Z</time>
      </trkpt>
      <trkpt lat="59.9794782" lon="17.7390653">
        <ele>42.916</ele>
        <time>2012-02-28T18:55:03Z</time>
      </trkpt>
      <trkpt lat="59.9794096" lon="17.7391212">
        <ele>42.916</ele>
        <time>2012-02-28T18:55:09Z</time>
      </trkpt>
      <trkpt lat="59.9793975" lon="17.7391222">
        <ele>42.4354</ele>
        <time>2012-02-28T18:55:11Z</time>
      </trkpt>
      <trkpt lat="59.9793237" lon="17.7391343">
        <ele>42.4354</ele>
        <time>2012-02-28T18:55:16Z</time>
      </trkpt>
      <trkpt lat="59.9792692" lon="17.7391715">
        <ele>43.3966</ele>
        <time>2012-02-28T18:55:20Z</time>
      </trkpt>
      <trkpt lat="59.9792175" lon="17.7392331">
        <ele>43.8773</ele>
        <time>2012-02-28T18:55:24Z</time>
      </trkpt>
      <trkpt lat="59.9791614" lon="17.7392688">
        <ele>43.8773</ele>
        <time>2012-02-28T18:55:28Z</time>
      </trkpt>
      <trkpt lat="59.9790775" lon="17.7393476">
        <ele>45.3192</ele>
        <time>2012-02-28T18:55:36Z</time>
      </trkpt>
      <trkpt lat="59.9790222" lon="17.7393619">
        <ele>45.3192</ele>
        <time>2012-02-28T18:55:40Z</time>
      </trkpt>
      <trkpt lat="59.9789775" lon="17.7393827">
        <ele>44.8386</ele>
        <time>2012-02-28T18:55:44Z</time>
      </trkpt>
      <trkpt lat="59.9788856" lon="17.7394217">
        <ele>45.3192</ele>
        <time>2012-02-28T18:55:50Z</time>
      </trkpt>
      <trkpt lat="59.9787979" lon="17.7394189">
        <ele>44.8386</ele>
        <time>2012-02-28T18:55:55Z</time>
      </trkpt>
      <trkpt lat="59.9787267" lon="17.7393938">
        <ele>43.3966</ele>
        <time>2012-02-28T18:56:00Z</time>
      </trkpt>
      <trkpt lat="59.9786413" lon="17.7393486">
        <ele>41.9547</ele>
        <time>2012-02-28T18:56:07Z</time>
      </trkpt>
      <trkpt lat="59.9785632" lon="17.7393433">
        <ele>40.5128</ele>
        <time>2012-02-28T18:56:12Z</time>
      </trkpt>
      <trkpt lat="59.9784726" lon="17.7393507">
        <ele>41.474</ele>
        <time>2012-02-28T18:56:18Z</time>
      </trkpt>
      <trkpt lat="59.9784174" lon="17.7393573">
        <ele>41.474</ele>
        <time>2012-02-28T18:56:22Z</time>
      </trkpt>
      <trkpt lat="59.9783899" lon="17.7393538">
        <ele>41.9547</ele>
        <time>2012-02-28T18:56:24Z</time>
      </trkpt>
      <trkpt lat="59.9782989" lon="17.7393643">
        <ele>43.3966</ele>
        <time>2012-02-28T18:56:30Z</time>
      </trkpt>
      <trkpt lat="59.978217" lon="17.73936">
        <ele>42.916</ele>
        <time>2012-02-28T18:56:36Z</time>
      </trkpt>
      <trkpt lat="59.9781544" lon="17.7393227">
        <ele>42.4354</ele>
        <time>2012-02-28T18:56:40Z</time>
      </trkpt>
      <trkpt lat="59.9781047" lon="17.7393056">
        <ele>40.9934</ele>
        <time>2012-02-28T18:56:44Z</time>
      </trkpt>
      <trkpt lat="59.978014" lon="17.7392462">
        <ele>40.0321</ele>
        <time>2012-02-28T18:56:51Z</time>
      </trkpt>
      <trkpt lat="59.9779338" lon="17.7391937">
        <ele>40.0321</ele>
        <time>2012-02-28T18:56:57Z</time>
      </trkpt>
      <trkpt lat="59.9778472" lon="17.7391404">
        <ele>39.0707</ele>
        <time>2012-02-28T18:57:03Z</time>
      </trkpt>
      <trkpt lat="59.9777732" lon="17.7391284">
        <ele>37.6287</ele>
        <time>2012-02-28T18:57:08Z</time>
      </trkpt>
      <trkpt lat="59.9776802" lon="17.7391253">
        <ele>37.6287</ele>
        <time>2012-02-28T18:57:13Z</time>
      </trkpt>
      <trkpt lat="59.9776696" lon="17.739115">
        <ele>37.1481</ele>
        <time>2012-02-28T18:57:14Z</time>
      </trkpt>
      <trkpt lat="59.9775984" lon="17.7391203">
        <ele>38.5901</ele>
        <time>2012-02-28T18:57:20Z</time>
      </trkpt>
      <trkpt lat="59.9774903" lon="17.7391516">
        <ele>39.0707</ele>
        <time>2012-02-28T18:57:28Z</time>
      </trkpt>
      <trkpt lat="59.9774455" lon="17.7391684">
        <ele>37.6287</ele>
        <time>2012-02-28T18:57:33Z</time>
      </trkpt>
      <trkpt lat="59.977351" lon="17.7392041">
        <ele>37.1481</ele>
        <time>2012-02-28T18:57:40Z</time>
      </trkpt>
      <trkpt lat="59.9772857" lon="17.7392285">
        <ele>36.1868</ele>
        <time>2012-02-28T18:57:45Z</time>
      </trkpt>
      <trkpt lat="59.9772064" lon="17.7392507">
        <ele>36.1868</ele>
        <time>2012-02-28T18:57:51Z</time>
      </trkpt>
      <trkpt lat="59.9771976" lon="17.739258">
        <ele>36.6675</ele>
        <time>2012-02-28T18:57:52Z</time>
      </trkpt>
      <trkpt lat="59.977171" lon="17.7392581">
        <ele>37.1481</ele>
        <time>2012-02-28T18:57:55Z</time>
      </trkpt>
      <trkpt lat="59.977129" lon="17.7393139">
        <ele>36.6675</ele>
        <time>2012-02-28T18:58:01Z</time>
      </trkpt>
      <trkpt lat="59.9770702" lon="17.7393765">
        <ele>35.2255</ele>
        <time>2012-02-28T18:58:07Z</time>
      </trkpt>
      <trkpt lat="59.9770019" lon="17.7394126">
        <ele>33.7834</ele>
        <time>2012-02-28T18:58:13Z</time>
      </trkpt>
      <trkpt lat="59.9769431" lon="17.7394412">
        <ele>35.7061</ele>
        <time>2012-02-28T18:58:18Z</time>
      </trkpt>
      <trkpt lat="59.9768647" lon="17.739464">
        <ele>35.2255</ele>
        <time>2012-02-28T18:58:23Z</time>
      </trkpt>
      <trkpt lat="59.9768094" lon="17.7394703">
        <ele>34.7449</ele>
        <time>2012-02-28T18:58:27Z</time>
      </trkpt>
      <trkpt lat="59.9767842" lon="17.7394786">
        <ele>34.7449</ele>
        <time>2012-02-28T18:58:28Z</time>
      </trkpt>
      <trkpt lat="59.9767475" lon="17.7394972">
        <ele>34.2642</ele>
        <time>2012-02-28T18:58:30Z</time>
      </trkpt>
      <trkpt lat="59.9766827" lon="17.7395579">
        <ele>33.3029</ele>
        <time>2012-02-28T18:58:35Z</time>
      </trkpt>
      <trkpt lat="59.9766512" lon="17.7395728">
        <ele>32.8223</ele>
        <time>2012-02-28T18:58:37Z</time>
      </trkpt>
      <trkpt lat="59.9766282" lon="17.7396176">
        <ele>31.8607</ele>
        <time>2012-02-28T18:58:40Z</time>
      </trkpt>
      <trkpt lat="59.9765842" lon="17.739676">
        <ele>31.8607</ele>
        <time>2012-02-28T18:58:46Z</time>
      </trkpt>
      <trkpt lat="59.9765323" lon="17.7397159">
        <ele>31.8607</ele>
        <time>2012-02-28T18:58:50Z</time>
      </trkpt>
      <trkpt lat="59.9764823" lon="17.7397977">
        <ele>31.8607</ele>
        <time>2012-02-28T18:58:53Z</time>
      </trkpt>
      <trkpt lat="59.9764429" lon="17.7398449">
        <ele>31.8607</ele>
        <time>2012-02-28T18:58:56Z</time>
      </trkpt>
      <trkpt lat="59.9764044" lon="17.7399108">
        <ele>30.8995</ele>
        <time>2012-02-28T18:59:00Z</time>
      </trkpt>
      <trkpt lat="59.9763745" lon="17.7400052">
        <ele>31.8607</ele>
        <time>2012-02-28T18:59:05Z</time>
      </trkpt>
      <trkpt lat="59.9763446" lon="17.7400962">
        <ele>32.3416</ele>
        <time>2012-02-28T18:59:09Z</time>
      </trkpt>
      <trkpt lat="59.9763287" lon="17.7402285">
        <ele>30.8995</ele>
        <time>2012-02-28T18:59:14Z</time>
      </trkpt>
      <trkpt lat="59.9763118" lon="17.7402934">
        <ele>29.9381</ele>
        <time>2012-02-28T18:59:17Z</time>
      </trkpt>
      <trkpt lat="59.9763031" lon="17.7403596">
        <ele>29.9381</ele>
        <time>2012-02-28T18:59:21Z</time>
      </trkpt>
      <trkpt lat="59.9762477" lon="17.7404854">
        <ele>30.8995</ele>
        <time>2012-02-28T18:59:27Z</time>
      </trkpt>
      <trkpt lat="59.9761854" lon="17.740593">
        <ele>31.3801</ele>
        <time>2012-02-28T18:59:31Z</time>
      </trkpt>
      <trkpt lat="59.9761564" lon="17.7406496">
        <ele>30.8995</ele>
        <time>2012-02-28T18:59:34Z</time>
      </trkpt>
      <trkpt lat="59.9761357" lon="17.7406027">
        <ele>29.9381</ele>
        <time>2012-02-28T18:59:38Z</time>
      </trkpt>
      <trkpt lat="59.9761689" lon="17.7404954">
        <ele>28.9769</ele>
        <time>2012-02-28T18:59:42Z</time>
      </trkpt>
      <trkpt lat="59.9762438" lon="17.7402759">
        <ele>28.0155</ele>
        <time>2012-02-28T18:59:51Z</time>
      </trkpt>
      <trkpt lat="59.9762964" lon="17.7402018">
        <ele>28.9769</ele>
        <time>2012-02-28T18:59:55Z</time>
      </trkpt>
      <trkpt lat="59.9763481" lon="17.7401221">
        <ele>28.4962</ele>
        <time>2012-02-28T18:59:59Z</time>
      </trkpt>
      <trkpt lat="59.9763869" lon="17.7400438">
        <ele>28.4962</ele>
        <time>2012-02-28T19:00:03Z</time>
      </trkpt>
      <trkpt lat="59.9764176" lon="17.7399547">
        <ele>28.9769</ele>
        <time>2012-02-28T19:00:07Z</time>
      </trkpt>
      <trkpt lat="59.9764579" lon="17.7397977">
        <ele>29.9381</ele>
        <time>2012-02-28T19:00:13Z</time>
      </trkpt>
      <trkpt lat="59.9764955" lon="17.7397138">
        <ele>30.8995</ele>
        <time>2012-02-28T19:00:17Z</time>
      </trkpt>
      <trkpt lat="59.9765437" lon="17.7396143">
        <ele>31.3801</ele>
        <time>2012-02-28T19:00:22Z</time>
      </trkpt>
      <trkpt lat="59.9765536" lon="17.7395966">
        <ele>31.3801</ele>
        <time>2012-02-28T19:00:23Z</time>
      </trkpt>
      <trkpt lat="59.9766106" lon="17.7394973">
        <ele>32.3416</ele>
        <time>2012-02-28T19:00:29Z</time>
      </trkpt>
      <trkpt lat="59.9767054" lon="17.7394542">
        <ele>31.3801</ele>
        <time>2012-02-28T19:00:35Z</time>
      </trkpt>
      <trkpt lat="59.9767681" lon="17.739389">
        <ele>33.3029</ele>
        <time>2012-02-28T19:00:40Z</time>
      </trkpt>
      <trkpt lat="59.9768583" lon="17.739359">
        <ele>32.8223</ele>
        <time>2012-02-28T19:00:46Z</time>
      </trkpt>
      <trkpt lat="59.9769343" lon="17.7393201">
        <ele>32.3416</ele>
        <time>2012-02-28T19:00:52Z</time>
      </trkpt>
      <trkpt lat="59.9769923" lon="17.739292">
        <ele>32.3416</ele>
        <time>2012-02-28T19:00:57Z</time>
      </trkpt>
      <trkpt lat="59.9770479" lon="17.7392496">
        <ele>30.8995</ele>
        <time>2012-02-28T19:01:02Z</time>
      </trkpt>
      <trkpt lat="59.9771259" lon="17.7392217">
        <ele>29.4575</ele>
        <time>2012-02-28T19:01:09Z</time>
      </trkpt>
      <trkpt lat="59.9772023" lon="17.7391952">
        <ele>28.9769</ele>
        <time>2012-02-28T19:01:15Z</time>
      </trkpt>
      <trkpt lat="59.9772711" lon="17.7391588">
        <ele>28.9769</ele>
        <time>2012-02-28T19:01:21Z</time>
      </trkpt>
      <trkpt lat="59.9773355" lon="17.7391165">
        <ele>28.9769</ele>
        <time>2012-02-28T19:01:26Z</time>
      </trkpt>
      <trkpt lat="59.9774038" lon="17.7390661">
        <ele>28.4962</ele>
        <time>2012-02-28T19:01:32Z</time>
      </trkpt>
      <trkpt lat="59.9774733" lon="17.7390099">
        <ele>29.9381</ele>
        <time>2012-02-28T19:01:37Z</time>
      </trkpt>
      <trkpt lat="59.9775715" lon="17.7389777">
        <ele>31.8607</ele>
        <time>2012-02-28T19:01:44Z</time>
      </trkpt>
      <trkpt lat="59.9777077" lon="17.7389545">
        <ele>32.3416</ele>
        <time>2012-02-28T19:01:53Z</time>
      </trkpt>
      <trkpt lat="59.9777981" lon="17.7389886">
        <ele>32.3416</ele>
        <time>2012-02-28T19:01:59Z</time>
      </trkpt>
      <trkpt lat="59.9778882" lon="17.7390013">
        <ele>33.7834</ele>
        <time>2012-02-28T19:02:04Z</time>
      </trkpt>
      <trkpt lat="59.9779897" lon="17.7390098">
        <ele>34.7449</ele>
        <time>2012-02-28T19:02:09Z</time>
      </trkpt>
      <trkpt lat="59.9780877" lon="17.7390031">
        <ele>34.7449</ele>
        <time>2012-02-28T19:02:14Z</time>
      </trkpt>
      <trkpt lat="59.9781573" lon="17.7390538">
        <ele>33.3029</ele>
        <time>2012-02-28T19:02:19Z</time>
      </trkpt>
      <trkpt lat="59.978225" lon="17.7390643">
        <ele>31.8607</ele>
        <time>2012-02-28T19:02:23Z</time>
      </trkpt>
      <trkpt lat="59.978286" lon="17.7391316">
        <ele>32.3416</ele>
        <time>2012-02-28T19:02:29Z</time>
      </trkpt>
      <trkpt lat="59.9783068" lon="17.7391454">
        <ele>31.3801</ele>
        <time>2012-02-28T19:02:31Z</time>
      </trkpt>
      <trkpt lat="59.9783803" lon="17.7391922">
        <ele>32.8223</ele>
        <time>2012-02-28T19:02:37Z</time>
      </trkpt>
      <trkpt lat="59.9784401" lon="17.7392008">
        <ele>33.7834</ele>
        <time>2012-02-28T19:02:43Z</time>
      </trkpt>
      <trkpt lat="59.9785121" lon="17.7392129">
        <ele>32.8223</ele>
        <time>2012-02-28T19:02:48Z</time>
      </trkpt>
      <trkpt lat="59.9785844" lon="17.7392109">
        <ele>31.8607</ele>
        <time>2012-02-28T19:02:53Z</time>
      </trkpt>
      <trkpt lat="59.9786444" lon="17.7392521">
        <ele>31.8607</ele>
        <time>2012-02-28T19:02:57Z</time>
      </trkpt>
      <trkpt lat="59.9787333" lon="17.7393175">
        <ele>33.3029</ele>
        <time>2012-02-28T19:03:03Z</time>
      </trkpt>
      <trkpt lat="59.9788203" lon="17.7393434">
        <ele>31.8607</ele>
        <time>2012-02-28T19:03:10Z</time>
      </trkpt>
      <trkpt lat="59.9788888" lon="17.7393296">
        <ele>31.8607</ele>
        <time>2012-02-28T19:03:15Z</time>
      </trkpt>
      <trkpt lat="59.9789318" lon="17.739388">
        <ele>31.3801</ele>
        <time>2012-02-28T19:03:19Z</time>
      </trkpt>
      <trkpt lat="59.9789737" lon="17.7395134">
        <ele>32.8223</ele>
        <time>2012-02-28T19:03:24Z</time>
      </trkpt>
      <trkpt lat="59.978997" lon="17.7395896">
        <ele>32.8223</ele>
        <time>2012-02-28T19:03:27Z</time>
      </trkpt>
      <trkpt lat="59.9789783" lon="17.7397615">
        <ele>33.7834</ele>
        <time>2012-02-28T19:03:33Z</time>
      </trkpt>
      <trkpt lat="59.9789708" lon="17.7398821">
        <ele>36.6675</ele>
        <time>2012-02-28T19:03:38Z</time>
      </trkpt>
      <trkpt lat="59.9789572" lon="17.7398929">
        <ele>37.1481</ele>
        <time>2012-02-28T19:03:39Z</time>
      </trkpt>
      <trkpt lat="59.9789175" lon="17.7399231">
        <ele>38.1094</ele>
        <time>2012-02-28T19:03:43Z</time>
      </trkpt>
    </trkseg>
  </trk>
</gpx>